Time;durP1;ratioP1;P1;durP2;ratioP2;P2;SDS_P1;SDS_P2;PMS_P1;PMS_P2;Temp;Humidity;BMP_temperature;BMP_pressure;BME280_temperature;BME280_humidity;BME280_pressure;Samples;Min_cycle;Max_cycle;Signal;HPM_P1;HPM_P2
2023/01/01 00:01:20;;;;;;;150.77;88.85;;;;;;;;;;6276064;22;20027;-68
2023/01/01 00:03:52;;;;;;;137.40;85.50;;;;;;;;;;6274135;22;20015;-68
2023/01/01 00:06:18;;;;;;;;;;;;;;;;;;6276357;22;20003;-68
2023/01/01 00:08:45;;;;;;;138.18;77.05;;;;;;;;;;6273753;22;20334;-68
2023/01/01 00:11:11;;;;;;;139.60;77.50;;;;;;;;;;6275870;22;20027;-68
2023/01/01 00:13:39;;;;;;;138.80;81.72;;;;;;;;;;6275145;22;20000;-68
2023/01/01 00:16:12;;;;;;;137.77;83.53;;;;;;;;;;6275902;22;20078;-69
2023/01/01 00:18:38;;;;;;;150.25;90.85;;;;;;;;;;6275305;22;20012;-68
2023/01/01 00:21:05;;;;;;;147.38;89.45;;;;;;;;;;6275795;22;20026;-68
2023/01/01 00:23:31;;;;;;;147.93;90.15;;;;;;;;;;6275564;22;20000;-71
2023/01/01 00:25:57;;;;;;;148.40;87.68;;;;;;;;;;6275133;22;20070;-68
2023/01/01 00:28:23;;;;;;;142.18;85.35;;;;;;;;;;6275311;22;20080;-67
2023/01/01 00:30:49;;;;;;;148.93;88.13;;;;;;;;;;6274370;22;20007;-68
2023/01/01 00:33:16;;;;;;;134.27;79.82;;;;;;;;;;6273691;22;20000;-69
2023/01/01 00:35:41;;;;;;;129.25;77.18;;;;;;;;;;6275178;22;20015;-67
2023/01/01 00:38:08;;;;;;;124.95;75.78;;;;;;;;;;6274664;22;20016;-71
2023/01/01 00:40:34;;;;;;;120.85;71.97;;;;;;;;;;6275691;22;20079;-66
2023/01/01 00:43:00;;;;;;;121.20;70.53;;;;;;;;;;6276305;22;20000;-67
2023/01/01 00:45:26;;;;;;;121.00;69.55;;;;;;;;;;6276900;22;20003;-68
2023/01/01 00:47:52;;;;;;;115.05;69.30;;;;;;;;;;6277787;22;20027;-67
2023/01/01 00:50:19;;;;;;;118.85;70.00;;;;;;;;;;6277510;22;20011;-65
2023/01/01 00:52:45;;;;;;;116.63;69.82;;;;;;;;;;6277553;22;20006;-66
2023/01/01 00:55:12;;;;;;;112.22;68.13;;;;;;;;;;6277835;22;20074;-68
2023/01/01 00:57:38;;;;;;;111.60;66.82;;;;;;;;;;6277758;22;20330;-67
2023/01/01 01:00:04;;;;;;;122.43;70.45;;;;;;;;;;6277673;22;20090;-67
2023/01/01 01:02:31;;;;;;;113.43;69.22;;;;;;;;;;6277644;22;20023;-67
2023/01/01 01:04:57;;;;;;;111.20;65.75;;;;;;;;;;6277668;22;20003;-68
2023/01/01 01:07:23;;;;;;;119.03;69.78;;;;;;;;;;6277697;22;19996;-69
2023/01/01 01:09:49;;;;;;;117.05;71.07;;;;;;;;;;6277774;22;20004;-68
2023/01/01 01:12:15;;;;;;;120.90;69.22;;;;;;;;;;6277346;22;20089;-67
2023/01/01 01:14:41;;;;;;;113.95;67.95;;;;;;;;;;6277747;22;19995;-67
2023/01/01 01:17:07;;;;;;;125.18;73.55;;;;;;;;;;6277275;22;20316;-67
2023/01/01 01:19:33;;;;;;;126.53;75.43;;;;;;;;;;6250503;22;20038;-67
2023/01/01 01:21:59;;;;;;;130.02;76.07;;;;;;;;;;6277879;22;19996;-67
2023/01/01 01:24:26;;;;;;;127.65;73.90;;;;;;;;;;6277303;22;20031;-67
2023/01/01 01:26:52;;;;;;;122.72;74.85;;;;;;;;;;6277468;22;20019;-67
2023/01/01 01:29:18;;;;;;;127.80;77.85;;;;;;;;;;6277131;22;20057;-68
2023/01/01 01:31:45;;;;;;;133.80;79.90;;;;;;;;;;6277410;22;19995;-67
2023/01/01 01:34:11;;;;;;;148.23;82.90;;;;;;;;;;6277335;22;20415;-67
2023/01/01 01:36:37;;;;;;;136.07;81.97;;;;;;;;;;6277643;22;20027;-67
2023/01/01 01:39:03;;;;;;;144.85;83.20;;;;;;;;;;6276994;22;20011;-66
2023/01/01 01:41:29;;;;;;;126.72;79.03;;;;;;;;;;6277150;22;20034;-68
2023/01/01 01:43:57;;;;;;;130.70;81.97;;;;;;;;;;6277756;22;20091;-68
2023/01/01 01:46:28;;;;;;;139.63;82.05;;;;;;;;;;6277145;22;20006;-67
2023/01/01 01:48:56;;;;;;;129.90;77.37;;;;;;;;;;6277537;22;20070;-67
2023/01/01 01:51:24;;;;;;;132.80;77.75;;;;;;;;;;6277082;22;20221;-67
2023/01/01 01:53:53;;;;;;;122.35;76.15;;;;;;;;;;6277305;22;20444;-67
2023/01/01 01:56:21;;;;;;;125.97;76.55;;;;;;;;;;6277214;22;20318;-67
2023/01/01 01:58:48;;;;;;;121.45;75.13;;;;;;;;;;6274030;22;20012;-67
2023/01/01 02:01:14;;;;;;;122.25;76.85;;;;;;;;;;6273399;22;20042;-68
2023/01/01 02:03:52;;;;;;;120.00;77.63;;;;;;;;;;6273858;22;20022;-67
2023/01/01 02:06:19;;;;;;;115.93;75.65;;;;;;;;;;6276526;22;20003;-67
2023/01/01 02:08:45;;;;;;;119.60;75.82;;;;;;;;;;6277018;22;20003;-67
2023/01/01 02:11:11;;;;;;;126.40;77.38;;;;;;;;;;6277128;22;20002;-67
2023/01/01 02:13:38;;;;;;;132.10;78.10;;;;;;;;;;6276915;22;20035;-67
2023/01/01 02:16:09;;;;;;;119.03;75.90;;;;;;;;;;6277196;22;20010;-67
2023/01/01 02:18:43;;;;;;;130.80;80.13;;;;;;;;;;6277253;22;20014;-69
2023/01/01 02:21:15;;;;;;;128.70;78.93;;;;;;;;;;6276565;22;20283;-68
2023/01/01 02:24:00;;;;;;;137.45;81.43;;;;;;;;;;6277146;22;20422;-66
2023/01/01 02:26:45;;;;;;;136.10;82.85;;;;;;;;;;6276743;22;20012;-67
2023/01/01 02:29:17;;;;;;;138.15;86.72;;;;;;;;;;6276204;22;20004;-67
2023/01/01 02:31:47;;;;;;;144.20;86.78;;;;;;;;;;6276854;22;19999;-67
2023/01/01 02:34:14;;;;;;;145.45;88.32;;;;;;;;;;6276379;22;20484;-68
2023/01/01 02:36:44;;;;;;;129.88;80.60;;;;;;;;;;6277086;22;19999;-67
2023/01/01 02:39:11;;;;;;;125.53;82.03;;;;;;;;;;6276975;22;20015;-68
2023/01/01 02:41:42;;;;;;;139.25;84.80;;;;;;;;;;6276827;22;20414;-66
2023/01/01 02:44:10;;;;;;;135.45;81.45;;;;;;;;;;6276515;22;20007;-66
2023/01/01 02:46:36;;;;;;;134.15;83.28;;;;;;;;;;6276855;22;20125;-69
2023/01/01 02:49:03;;;;;;;132.32;82.43;;;;;;;;;;6276894;22;20006;-68
2023/01/01 02:51:42;;;;;;;140.07;82.40;;;;;;;;;;6276564;22;20010;-67
2023/01/01 02:54:10;;;;;;;127.13;77.68;;;;;;;;;;6276794;22;20410;-67
2023/01/01 02:56:45;;;;;;;127.80;80.97;;;;;;;;;;6276736;22;20426;-67
2023/01/01 03:02:27;;;;;;;135.57;81.20;;;;;;;;;;6183377;23;20017;-67
2023/01/01 03:05:12;;;;;;;138.13;84.20;;;;;;;;;;6182884;23;20009;-68
2023/01/01 03:07:38;;;;;;;146.82;85.70;;;;;;;;;;6237931;22;20004;-67
2023/01/01 03:10:07;;;;;;;132.60;79.53;;;;;;;;;;6276352;22;20050;-68
2023/01/01 03:12:42;;;;;;;133.45;82.70;;;;;;;;;;6276352;22;20295;-67
2023/01/01 03:15:15;;;;;;;126.45;81.20;;;;;;;;;;6276638;22;20011;-67
2023/01/01 03:17:46;;;;;;;132.85;81.38;;;;;;;;;;6276308;22;20434;-67
2023/01/01 03:20:15;;;;;;;125.30;78.05;;;;;;;;;;6276335;22;20488;-69
2023/01/01 03:22:43;;;;;;;126.60;76.47;;;;;;;;;;6276169;22;20027;-67
2023/01/01 03:25:11;;;;;;;110.18;74.20;;;;;;;;;;6276336;22;20027;-67
2023/01/01 03:27:46;;;;;;;120.90;75.57;;;;;;;;;;6248734;22;20022;-67
2023/01/01 03:30:13;;;;;;;117.70;76.97;;;;;;;;;;6276192;22;20068;-68
2023/01/01 03:33:02;;;;;;;120.40;74.70;;;;;;;;;;6276335;22;19999;-67
2023/01/01 03:36:06;;;;;;;123.88;75.32;;;;;;;;;;6276657;22;20007;-67
2023/01/01 03:38:41;;;;;;;128.75;76.35;;;;;;;;;;6181825;23;20066;-67
2023/01/01 03:41:11;;;;;;;124.78;76.07;;;;;;;;;;6182905;23;20435;-67
2023/01/01 03:43:48;;;;;;;117.00;73.07;;;;;;;;;;6209295;22;20008;-67
2023/01/01 03:46:15;;;;;;;115.38;74.15;;;;;;;;;;6276422;22;20000;-68
2023/01/01 03:48:57;;;;;;;119.82;75.78;;;;;;;;;;6276610;22;20007;-68
2023/01/01 03:51:31;;;;;;;113.07;71.90;;;;;;;;;;6276443;22;19995;-68
2023/01/01 03:54:01;;;;;;;124.07;72.15;;;;;;;;;;6275813;22;20007;-68
2023/01/01 03:56:34;;;;;;;118.05;72.93;;;;;;;;;;6276112;22;20006;-69
2023/01/01 03:59:15;;;;;;;121.15;74.65;;;;;;;;;;6276463;22;20325;-67
2023/01/01 04:01:43;;;;;;;124.40;75.47;;;;;;;;;;6276381;22;20003;-68
2023/01/01 04:04:10;;;;;;;123.22;74.32;;;;;;;;;;6276118;22;20334;-69
2023/01/01 04:06:36;;;;;;;118.75;71.00;;;;;;;;;;6276205;22;20035;-67
2023/01/01 04:09:03;;;;;;;114.68;70.85;;;;;;;;;;6276428;22;20331;-67
2023/01/01 04:14:33;;;;;;;115.95;72.75;;;;;;;;;;6275957;22;20619;-67
2023/01/01 04:17:00;;;;;;;112.05;70.25;;;;;;;;;;6248890;22;20338;-67
2023/01/01 04:19:26;;;;;;;110.03;71.15;;;;;;;;;;6276005;22;20008;-67
2023/01/01 04:21:52;;;;;;;113.40;72.47;;;;;;;;;;6278696;22;20070;-67
2023/01/01 04:24:19;;;;;;;99.80;67.65;;;;;;;;;;6250499;22;20395;-66
2023/01/01 04:26:45;;;;;;;111.50;69.95;;;;;;;;;;6278043;22;20065;-67
2023/01/01 04:29:11;;;;;;;124.40;75.68;;;;;;;;;;6278297;22;20007;-66
2023/01/01 04:31:37;;;;;;;111.28;71.53;;;;;;;;;;6251176;22;20004;-67
2023/01/01 04:34:03;;;;;;;113.95;69.35;;;;;;;;;;6277652;22;20050;-67
2023/01/01 04:36:29;;;;;;;120.32;70.85;;;;;;;;;;6278355;22;19999;-67
2023/01/01 04:38:55;;;;;;;109.22;67.75;;;;;;;;;;6277862;22;20015;-68
2023/01/01 04:41:21;;;;;;;120.65;73.63;;;;;;;;;;6277742;22;19995;-67
2023/01/01 04:43:51;;;;;;;122.25;72.88;;;;;;;;;;6277936;22;19999;-67
2023/01/01 04:46:18;;;;;;;114.18;71.95;;;;;;;;;;6277778;22;20000;-67
2023/01/01 04:48:44;;;;;;;123.75;76.43;;;;;;;;;;6278261;22;19996;-67
2023/01/01 04:51:11;;;;;;;113.70;72.78;;;;;;;;;;6278074;22;20075;-67
2023/01/01 04:53:37;;;;;;;114.75;71.85;;;;;;;;;;6277754;22;20330;-67
2023/01/01 04:56:04;;;;;;;117.88;74.03;;;;;;;;;;6277576;22;20492;-67
2023/01/01 04:58:30;;;;;;;113.32;72.00;;;;;;;;;;6277667;22;20027;-67
2023/01/01 05:00:56;;;;;;;116.75;73.88;;;;;;;;;;6277890;22;20417;-67
2023/01/01 05:03:22;;;;;;;121.78;73.57;;;;;;;;;;6276979;22;20361;-67
2023/01/01 05:05:58;;;;;;;121.22;74.45;;;;;;;;;;6277227;22;20425;-67
2023/01/01 05:08:24;;;;;;;117.75;73.30;;;;;;;;;;6277954;22;20062;-67
2023/01/01 05:10:50;;;;;;;113.00;73.65;;;;;;;;;;6277596;22;20421;-67
2023/01/01 05:13:16;;;;;;;130.30;76.90;;;;;;;;;;6277889;22;20031;-67
2023/01/01 05:15:42;;;;;;;113.85;70.55;;;;;;;;;;6277736;22;20025;-68
2023/01/01 05:18:08;;;;;;;111.38;71.50;;;;;;;;;;6276927;22;20012;-67
2023/01/01 05:20:34;;;;;;;117.32;73.93;;;;;;;;;;6277732;22;20361;-68
2023/01/01 05:23:00;;;;;;;117.75;74.40;;;;;;;;;;6277404;22;20000;-67
2023/01/01 05:25:27;;;;;;;115.10;73.35;;;;;;;;;;6277275;22;19996;-68
2023/01/01 05:27:53;;;;;;;115.75;73.53;;;;;;;;;;6277190;22;20010;-70
2023/01/01 05:30:19;;;;;;;110.78;74.72;;;;;;;;;;6277916;22;20046;-68
2023/01/01 05:32:45;;;;;;;111.70;73.38;;;;;;;;;;6277404;22;20010;-68
2023/01/01 05:35:11;;;;;;;118.68;75.53;;;;;;;;;;6276832;22;19999;-67
2023/01/01 05:37:37;;;;;;;109.40;72.13;;;;;;;;;;6277112;22;20364;-67
2023/01/01 05:40:04;;;;;;;109.00;72.68;;;;;;;;;;6277385;22;20380;-67
2023/01/01 05:42:30;;;;;;;103.13;69.88;;;;;;;;;;6277132;22;19996;-67
2023/01/01 05:44:56;;;;;;;111.13;71.07;;;;;;;;;;6277125;22;19996;-67
2023/01/01 05:47:22;;;;;;;103.97;70.70;;;;;;;;;;6277394;22;20027;-67
2023/01/01 05:49:48;;;;;;;108.15;71.30;;;;;;;;;;6277178;22;20000;-68
2023/01/01 05:52:14;;;;;;;103.38;71.00;;;;;;;;;;6276806;22;20003;-67
2023/01/01 05:54:40;;;;;;;96.10;67.60;;;;;;;;;;6277683;22;19995;-68
2023/01/01 05:57:06;;;;;;;105.88;70.07;;;;;;;;;;6277385;22;20007;-69
2023/01/01 05:59:32;;;;;;;106.65;70.25;;;;;;;;;;6277396;22;20090;-66
2023/01/01 06:01:58;;;;;;;110.03;72.28;;;;;;;;;;6277326;22;20007;-67
2023/01/01 06:04:24;;;;;;;106.43;71.20;;;;;;;;;;6277493;22;20000;-67
2023/01/01 06:06:50;;;;;;;109.60;72.35;;;;;;;;;;6277298;22;20000;-67
2023/01/01 06:09:16;;;;;;;104.88;71.10;;;;;;;;;;6277179;22;20053;-68
2023/01/01 06:11:42;;;;;;;112.85;72.18;;;;;;;;;;6276988;22;20004;-66
2023/01/01 06:14:08;;;;;;;108.53;72.63;;;;;;;;;;6277572;22;20004;-67
2023/01/01 06:16:34;;;;;;;106.13;70.90;;;;;;;;;;6277396;22;20042;-67
2023/01/01 06:19:00;;;;;;;98.90;66.75;;;;;;;;;;6277273;22;20090;-67
2023/01/01 06:21:27;;;;;;;103.82;71.78;;;;;;;;;;6277142;22;20003;-68
2023/01/01 06:23:55;;;;;;;103.95;71.05;;;;;;;;;;6276856;22;20327;-68
2023/01/01 06:26:23;;;;;;;101.53;69.97;;;;;;;;;;6276770;22;20007;-67
2023/01/01 06:28:49;;;;;;;114.13;72.03;;;;;;;;;;6276791;22;20010;-67
2023/01/01 06:31:16;;;;;;;103.45;68.53;;;;;;;;;;6276886;22;20000;-68
2023/01/01 06:33:43;;;;;;;106.25;70.35;;;;;;;;;;6276724;22;20329;-67
2023/01/01 06:36:11;;;;;;;111.63;73.38;;;;;;;;;;6276774;22;20355;-66
2023/01/01 06:38:38;;;;;;;113.40;72.00;;;;;;;;;;6276901;22;20435;-67
2023/01/01 06:41:06;;;;;;;112.30;71.35;;;;;;;;;;6276498;22;20361;-67
2023/01/01 06:43:33;;;;;;;104.75;67.43;;;;;;;;;;6276585;22;20007;-66
2023/01/01 06:46:00;;;;;;;101.20;66.40;;;;;;;;;;6276860;22;19996;-67
2023/01/01 06:48:27;;;;;;;97.03;63.88;;;;;;;;;;6276776;22;20000;-66
2023/01/01 06:50:53;;;;;;;96.72;61.90;;;;;;;;;;6276944;22;20102;-68
2023/01/01 06:53:19;;;;;;;95.57;61.03;;;;;;;;;;6276847;22;20000;-67
2023/01/01 06:55:48;;;;;;;93.22;60.30;;;;;;;;;;6277060;22;20366;-67
2023/01/01 06:58:14;;;;;;;87.72;58.95;;;;;;;;;;6276894;22;20011;-66
2023/01/01 07:00:40;;;;;;;97.47;64.75;;;;;;;;;;6276663;22;20300;-67
2023/01/01 07:03:09;;;;;;;98.50;65.95;;;;;;;;;;6277061;22;20007;-66
2023/01/01 07:05:35;;;;;;;103.50;65.28;;;;;;;;;;6276794;22;20448;-67
2023/01/01 07:08:01;;;;;;;89.13;59.13;;;;;;;;;;6276751;22;20004;-67
2023/01/01 07:10:27;;;;;;;101.63;62.33;;;;;;;;;;6276720;22;20018;-66
2023/01/01 07:12:53;;;;;;;96.28;65.15;;;;;;;;;;6276701;22;20004;-69
2023/01/01 07:15:19;;;;;;;99.68;64.63;;;;;;;;;;6277008;22;20010;-67
2023/01/01 07:17:45;;;;;;;91.25;59.08;;;;;;;;;;6276633;22;20033;-67
2023/01/01 07:20:11;;;;;;;98.15;61.47;;;;;;;;;;6276594;22;20008;-66
2023/01/01 07:22:37;;;;;;;95.63;61.20;;;;;;;;;;6276614;22;20449;-67
2023/01/01 07:25:04;;;;;;;95.75;60.80;;;;;;;;;;6250185;22;20004;-66
2023/01/01 07:27:30;;;;;;;92.78;61.78;;;;;;;;;;6249211;22;20023;-66
2023/01/01 07:29:56;;;;;;;97.57;60.83;;;;;;;;;;6276646;22;20000;-67
2023/01/01 07:32:22;;;;;;;89.20;59.55;;;;;;;;;;6276825;22;20000;-67
2023/01/01 07:34:48;;;;;;;90.20;59.10;;;;;;;;;;6275727;22;20438;-68
2023/01/01 07:37:14;;;;;;;99.10;62.90;;;;;;;;;;6276427;22;20101;-67
2023/01/01 07:39:40;;;;;;;96.18;60.53;;;;;;;;;;6276159;22;20015;-67
2023/01/01 07:42:06;;;;;;;97.80;59.85;;;;;;;;;;6276030;22;20000;-66
2023/01/01 07:44:33;;;;;;;95.35;59.78;;;;;;;;;;6276379;22;20098;-66
2023/01/01 07:47:05;;;;;;;86.72;57.95;;;;;;;;;;6276029;22;20000;-67
2023/01/01 07:49:31;;;;;;;94.57;60.58;;;;;;;;;;6276259;22;19996;-66
2023/01/01 07:51:57;;;;;;;92.30;58.63;;;;;;;;;;6275975;22;20004;-66
2023/01/01 07:54:23;;;;;;;93.85;61.92;;;;;;;;;;6275499;22;20027;-67
2023/01/01 07:56:49;;;;;;;103.75;59.65;;;;;;;;;;6275745;22;20003;-67
2023/01/01 07:59:15;;;;;;;92.25;61.85;;;;;;;;;;6275294;22;20012;-67
2023/01/01 08:01:41;;;;;;;87.00;58.65;;;;;;;;;;6275817;22;20053;-67
2023/01/01 08:04:08;;;;;;;98.88;61.33;;;;;;;;;;6275989;22;20003;-66
2023/01/01 08:06:34;;;;;;;100.15;63.00;;;;;;;;;;6275776;22;20003;-67
2023/01/01 08:09:00;;;;;;;96.25;63.13;;;;;;;;;;6275791;22;20027;-69
2023/01/01 08:11:26;;;;;;;101.00;64.50;;;;;;;;;;6276083;22;20003;-67
2023/01/01 08:13:52;;;;;;;97.15;62.83;;;;;;;;;;6276355;22;20003;-67
2023/01/01 08:16:18;;;;;;;95.45;63.13;;;;;;;;;;6276261;22;20004;-67
2023/01/01 08:18:46;;;;;;;95.55;62.28;;;;;;;;;;6275708;22;20315;-68
2023/01/01 08:21:12;;;;;;;104.32;65.57;;;;;;;;;;6274876;22;20373;-67
2023/01/01 08:23:38;;;;;;;93.05;61.85;;;;;;;;;;6274158;22;20502;-68
2023/01/01 08:26:04;;;;;;;94.68;62.60;;;;;;;;;;6274574;22;20016;-67
2023/01/01 08:28:30;;;;;;;97.57;62.78;;;;;;;;;;6272188;22;20018;-67
2023/01/01 08:30:56;;;;;;;100.22;62.50;;;;;;;;;;6271811;22;20004;-67
2023/01/01 08:33:23;;;;;;;100.43;63.35;;;;;;;;;;6272352;22;20315;-66
2023/01/01 08:35:50;;;;;;;105.95;64.63;;;;;;;;;;6272205;22;20010;-67
2023/01/01 08:38:16;;;;;;;96.95;60.50;;;;;;;;;;6271857;22;20011;-67
2023/01/01 08:40:42;;;;;;;98.38;63.53;;;;;;;;;;6247536;22;20007;-65
2023/01/01 08:43:08;;;;;;;96.15;60.65;;;;;;;;;;6275265;22;20030;-67
2023/01/01 08:45:34;;;;;;;105.13;65.63;;;;;;;;;;6275833;22;19996;-67
2023/01/01 08:48:00;;;;;;;99.38;62.88;;;;;;;;;;6273980;22;20008;-66
2023/01/01 08:50:26;;;;;;;97.03;61.78;;;;;;;;;;6275095;22;20063;-67
2023/01/01 08:52:52;;;;;;;92.57;61.90;;;;;;;;;;6225598;22;20022;-67
2023/01/01 08:55:18;;;;;;;98.03;60.60;;;;;;;;;;6247937;22;20008;-66
2023/01/01 08:57:44;;;;;;;100.32;61.75;;;;;;;;;;6247718;22;20078;-67
2023/01/01 09:00:12;;;;;;;94.68;60.55;;;;;;;;;;6274735;22;20043;-65
2023/01/01 09:02:38;;;;;;;94.80;58.20;;;;;;;;;;6274649;22;19999;-66
2023/01/01 09:05:04;;;;;;;90.43;59.28;;;;;;;;;;6274754;22;20014;-66
2023/01/01 09:07:30;;;;;;;96.68;58.35;;;;;;;;;;6276760;22;20002;-66
2023/01/01 09:09:56;;;;;;;98.40;61.97;;;;;;;;;;6276996;22;20426;-66
2023/01/01 09:12:22;;;;;;;105.82;64.78;;;;;;;;;;6276967;22;20004;-66
2023/01/01 09:14:48;;;;;;;106.72;67.20;;;;;;;;;;6277077;22;20439;-65
2023/01/01 09:17:15;;;;;;;104.22;62.17;;;;;;;;;;6276670;22;20022;-65
2023/01/01 09:19:41;;;;;;;109.97;63.50;;;;;;;;;;6276560;22;20308;-65
2023/01/01 09:22:10;;;;;;;103.20;61.78;;;;;;;;;;6276711;22;20431;-66
2023/01/01 09:24:36;;;;;;;101.15;60.28;;;;;;;;;;6277264;22;20426;-67
2023/01/01 09:27:02;;;;;;;99.50;59.42;;;;;;;;;;6276270;22;20018;-66
2023/01/01 09:29:28;;;;;;;105.43;63.60;;;;;;;;;;6276685;22;20039;-66
2023/01/01 09:31:54;;;;;;;108.43;63.78;;;;;;;;;;6276885;22;20000;-67
2023/01/01 09:34:20;;;;;;;108.35;63.45;;;;;;;;;;6273586;22;20012;-66
2023/01/01 09:36:46;;;;;;;117.50;64.45;;;;;;;;;;6274248;22;20011;-67
2023/01/01 09:39:14;;;;;;;117.85;63.78;;;;;;;;;;6276143;22;20019;-66
2023/01/01 09:42:04;;;;;;;113.00;60.25;;;;;;;;;;6276923;22;20027;-67
2023/01/01 09:44:41;;;;;;;108.85;60.55;;;;;;;;;;6277011;22;20130;-67
2023/01/01 09:47:18;;;;;;;117.38;65.43;;;;;;;;;;6276113;22;20330;-67
2023/01/01 09:49:46;;;;;;;121.63;66.05;;;;;;;;;;6277262;22;20327;-66
2023/01/01 09:52:13;;;;;;;130.70;68.45;;;;;;;;;;6277431;22;20049;-66
2023/01/01 09:54:44;;;;;;;131.10;68.07;;;;;;;;;;6276644;22;20045;-67
2023/01/01 09:57:12;;;;;;;119.13;63.60;;;;;;;;;;6277011;22;20303;-65
2023/01/01 09:59:39;;;;;;;118.28;65.30;;;;;;;;;;6273221;22;20023;-67
2023/01/01 10:02:20;;;;;;;120.85;62.40;;;;;;;;;;6274122;22;20000;-66
2023/01/01 10:04:59;;;;;;;119.97;64.90;;;;;;;;;;6275386;22;20011;-67
2023/01/01 10:07:37;;;;;;;111.68;62.22;;;;;;;;;;6276711;22;19999;-67
2023/01/01 10:10:06;;;;;;;126.60;65.65;;;;;;;;;;6277104;22;19999;-67
2023/01/01 10:12:48;;;;;;;111.78;60.88;;;;;;;;;;6277031;22;20003;-66
2023/01/01 10:15:16;;;;;;;135.27;63.33;;;;;;;;;;6277390;22;20000;-67
2023/01/01 10:17:44;;;;;;;115.70;61.85;;;;;;;;;;6276706;22;20011;-67
2023/01/01 10:20:23;;;;;;;120.03;63.53;;;;;;;;;;6276751;22;20019;-67
2023/01/01 10:22:52;;;;;;;110.13;58.53;;;;;;;;;;6276909;22;20004;-67
2023/01/01 10:25:18;;;;;;;118.72;60.47;;;;;;;;;;6276736;22;20094;-68
2023/01/01 10:27:58;;;;;;;128.38;62.53;;;;;;;;;;6276197;22;20050;-69
2023/01/01 10:30:24;;;;;;;119.30;62.22;;;;;;;;;;6277209;22;20307;-67
2023/01/01 10:32:52;;;;;;;117.53;64.07;;;;;;;;;;6276967;22;20000;-67
2023/01/01 10:35:30;;;;;;;117.35;60.78;;;;;;;;;;6276985;22;20061;-67
2023/01/01 10:37:57;;;;;;;122.47;62.17;;;;;;;;;;6276797;22;20182;-67
2023/01/01 10:40:25;;;;;;;120.00;61.58;;;;;;;;;;6276631;22;20039;-67
2023/01/01 10:42:53;;;;;;;122.03;63.88;;;;;;;;;;6276580;22;20414;-67
2023/01/01 10:45:23;;;;;;;116.88;63.97;;;;;;;;;;6276623;22;20004;-66
2023/01/01 10:48:07;;;;;;;115.47;63.63;;;;;;;;;;6275249;22;20004;-67
2023/01/01 10:50:52;;;;;;;111.55;62.28;;;;;;;;;;6273040;22;20000;-66
2023/01/01 10:53:19;;;;;;;108.95;60.17;;;;;;;;;;6274262;22;20007;-67
2023/01/01 10:55:49;;;;;;;117.07;63.70;;;;;;;;;;6276513;22;19999;-66
2023/01/01 10:58:34;;;;;;;113.03;64.28;;;;;;;;;;6276534;22;19999;-66
2023/01/01 11:01:01;;;;;;;117.25;64.20;;;;;;;;;;6276010;22;20031;-67
2023/01/01 11:03:27;;;;;;;121.72;64.60;;;;;;;;;;6276113;22;20069;-67
2023/01/01 11:05:59;;;;;;;104.07;59.92;;;;;;;;;;6276131;22;20366;-67
2023/01/01 11:08:25;;;;;;;109.80;60.95;;;;;;;;;;6276715;22;20008;-67
2023/01/01 11:10:51;;;;;;;115.05;64.18;;;;;;;;;;6276327;22;20007;-66
2023/01/01 11:13:21;;;;;;;113.60;63.05;;;;;;;;;;6274127;22;20007;-67
2023/01/01 11:15:47;;;;;;;110.63;62.80;;;;;;;;;;6272486;22;20002;-67
2023/01/01 11:18:20;;;;;;;114.68;61.35;;;;;;;;;;6272544;22;20414;-66
2023/01/01 11:20:56;;;;;;;108.72;60.70;;;;;;;;;;6275203;22;19999;-67
2023/01/01 11:23:28;;;;;;;104.00;57.67;;;;;;;;;;6275856;22;20414;-67
2023/01/01 11:26:01;;;;;;;111.47;61.42;;;;;;;;;;6276115;22;20425;-67
2023/01/01 11:28:30;;;;;;;106.32;62.60;;;;;;;;;;6276157;22;20004;-68
2023/01/01 11:31:07;;;;;;;128.88;65.88;;;;;;;;;;6276349;22;20027;-67
2023/01/01 11:33:35;;;;;;;122.90;64.97;;;;;;;;;;6276170;22;20075;-66
2023/01/01 11:36:02;;;;;;;106.10;59.00;;;;;;;;;;6275736;22;20000;-67
2023/01/01 11:38:28;;;;;;;88.97;53.13;;;;;;;;;;6276187;22;20012;-67
2023/01/01 11:40:55;;;;;;;97.88;54.63;;;;;;;;;;6276087;22;20019;-66
2023/01/01 11:43:22;;;;;;;94.95;53.45;;;;;;;;;;6275596;22;20011;-66
2023/01/01 11:45:49;;;;;;;88.05;50.10;;;;;;;;;;6275987;22;20457;-67
2023/01/01 11:48:21;;;;;;;87.88;50.40;;;;;;;;;;6275793;22;20422;-66
2023/01/01 11:50:54;;;;;;;77.38;47.38;;;;;;;;;;6274861;22;20004;-67
2023/01/01 11:53:23;;;;;;;82.13;48.10;;;;;;;;;;6272364;22;20063;-67
2023/01/01 11:55:53;;;;;;;81.80;48.67;;;;;;;;;;6272040;22;20364;-66
2023/01/01 11:58:22;;;;;;;78.43;47.20;;;;;;;;;;6272660;22;20004;-66
2023/01/01 12:00:52;;;;;;;80.95;48.65;;;;;;;;;;6275467;22;20038;-67
2023/01/01 12:03:37;;;;;;;80.80;49.15;;;;;;;;;;6276078;22;20004;-67
2023/01/01 12:06:07;;;;;;;83.70;48.10;;;;;;;;;;6275464;22;19996;-66
2023/01/01 12:08:42;;;;;;;82.40;47.17;;;;;;;;;;6275174;22;20102;-66
2023/01/01 12:11:20;;;;;;;82.68;47.53;;;;;;;;;;6275455;22;20449;-67
2023/01/01 12:13:51;;;;;;;80.13;44.65;;;;;;;;;;6275424;22;19996;-67
2023/01/01 12:16:23;;;;;;;84.75;48.17;;;;;;;;;;6275243;22;20125;-67
2023/01/01 12:19:00;;;;;;;79.95;48.33;;;;;;;;;;6275615;22;20035;-67
2023/01/01 12:21:27;;;;;;;77.07;45.42;;;;;;;;;;6275665;22;20369;-66
2023/01/01 12:23:53;;;;;;;82.70;46.92;;;;;;;;;;6275411;22;19995;-67
2023/01/01 12:26:19;;;;;;;79.88;48.03;;;;;;;;;;6275476;22;20012;-67
2023/01/01 12:29:04;;;;;;;81.20;45.75;;;;;;;;;;6275545;22;20049;-68
2023/01/01 12:31:59;;;;;;;78.65;47.08;;;;;;;;;;6275285;22;20008;-67
2023/01/01 12:34:35;;;;;;;75.60;46.05;;;;;;;;;;6255983;22;20011;-66
2023/01/01 12:37:13;;;;;;;73.78;45.83;;;;;;;;;;6275439;22;20057;-66
2023/01/01 12:39:39;;;;;;;78.15;46.95;;;;;;;;;;6275259;22;20453;-67
2023/01/01 12:42:24;;;;;;;77.70;44.97;;;;;;;;;;6277106;22;19996;-69
2023/01/01 12:45:01;;;;;;;79.57;46.45;;;;;;;;;;6277513;22;20004;-67
2023/01/01 12:47:27;;;;;;;79.70;48.15;;;;;;;;;;6276820;22;19999;-66
2023/01/01 12:49:56;;;;;;;93.50;54.58;;;;;;;;;;6277374;22;20022;-67
2023/01/01 12:52:28;;;;;;;86.20;49.92;;;;;;;;;;6277753;22;20326;-67
2023/01/01 12:55:11;;;;;;;89.07;50.65;;;;;;;;;;6277450;22;20026;-66
2023/01/01 12:57:48;;;;;;;84.93;51.17;;;;;;;;;;6277564;22;20042;-67
2023/01/01 13:00:19;;;;;;;91.68;49.97;;;;;;;;;;6276734;22;20007;-67
2023/01/01 13:03:04;;;;;;;92.90;50.08;;;;;;;;;;6277412;22;20000;-67
2023/01/01 13:05:36;;;;;;;82.70;50.80;;;;;;;;;;6277897;22;20008;-67
2023/01/01 13:08:03;;;;;;;91.28;50.28;;;;;;;;;;6277388;22;20000;-67
2023/01/01 13:10:34;;;;;;;83.72;48.45;;;;;;;;;;6277542;22;19996;-66
2023/01/01 13:13:00;;;;;;;85.65;49.10;;;;;;;;;;6277405;22;20415;-67
2023/01/01 13:15:42;;;;;;;92.07;56.17;;;;;;;;;;6277318;22;20430;-67
2023/01/01 13:18:14;;;;;;;91.15;55.30;;;;;;;;;;6277326;22;20311;-67
2023/01/01 13:20:45;;;;;;;92.15;56.83;;;;;;;;;;6277237;22;20443;-67
2023/01/01 13:23:29;;;;;;;87.15;51.25;;;;;;;;;;6249449;22;20004;-69
2023/01/01 13:26:24;;;;;;;92.43;51.08;;;;;;;;;;6276838;22;20007;-68
2023/01/01 13:28:56;;;;;;;85.97;52.22;;;;;;;;;;6268635;22;20476;-69
2023/01/01 13:31:38;;;;;;;87.82;50.22;;;;;;;;;;6276550;22;19999;-67
2023/01/01 13:34:22;;;;;;;86.28;51.63;;;;;;;;;;6277044;22;19996;-66
2023/01/01 13:36:48;;;;;;;87.57;52.35;;;;;;;;;;6276888;22;19999;-66
2023/01/01 13:39:34;;;;;;;93.05;52.28;;;;;;;;;;6276513;22;20008;-68
2023/01/01 13:42:00;;;;;;;93.00;53.78;;;;;;;;;;6276881;22;20126;-67
2023/01/01 13:44:26;;;;;;;105.43;60.40;;;;;;;;;;6276859;22;20006;-67
2023/01/01 13:47:01;;;;;;;107.78;60.63;;;;;;;;;;6276846;22;20326;-68
2023/01/01 13:49:27;;;;;;;103.57;60.17;;;;;;;;;;6276678;22;20417;-67
2023/01/01 13:51:56;;;;;;;109.28;59.63;;;;;;;;;;6276634;22;20007;-68
2023/01/01 13:54:38;;;;;;;107.20;59.15;;;;;;;;;;6276528;22;20450;-66
2023/01/01 13:57:15;;;;;;;108.82;59.85;;;;;;;;;;6276371;22;20449;-67
2023/01/01 14:00:10;;;;;;;106.55;60.72;;;;;;;;;;6276566;22;20090;-67
2023/01/01 14:02:42;;;;;;;120.75;63.22;;;;;;;;;;6255777;22;20495;-68
2023/01/01 14:05:08;;;;;;;150.80;84.28;;;;;;;;;;6276841;22;20010;-67
2023/01/01 14:07:53;;;;;;;140.50;79.10;;;;;;;;;;6276670;22;20078;-67
2023/01/01 14:10:21;;;;;;;132.27;76.78;;;;;;;;;;6276862;22;20015;-66
2023/01/01 14:12:48;;;;;;;118.60;67.57;;;;;;;;;;6276977;22;20011;-65
2023/01/01 14:15:16;;;;;;;111.50;63.97;;;;;;;;;;6276818;22;20030;-68
2023/01/01 14:17:43;;;;;;;106.00;68.43;;;;;;;;;;6276938;22;20440;-67
2023/01/01 14:20:14;;;;;;;109.50;62.85;;;;;;;;;;6276834;22;20011;-67
2023/01/01 14:22:42;;;;;;;105.20;59.03;;;;;;;;;;6276361;22;20007;-67
2023/01/01 14:25:13;;;;;;;100.75;57.45;;;;;;;;;;6276844;22;20007;-67
2023/01/01 14:27:39;;;;;;;104.68;58.90;;;;;;;;;;6276507;22;20012;-67